createdAt,value
2018-03-20T00:00:34.377Z,0.00
2018-03-20T00:01:34.320Z,0.00
2018-03-20T00:02:34.268Z,0.00
2018-03-20T00:03:34.214Z,0.00
2018-03-20T00:04:34.157Z,0.00
2018-03-20T00:05:34.104Z,0.00
2018-03-20T00:06:34.049Z,0.00
2018-03-20T00:07:34.001Z,0.00
2018-03-20T00:08:33.942Z,0.00
2018-03-20T00:09:33.888Z,0.00
2018-03-20T00:10:33.868Z,0.00
2018-03-20T00:11:33.780Z,0.00
2018-03-20T00:12:33.722Z,0.00
2018-03-20T00:13:33.669Z,0.00
2018-03-20T00:14:33.615Z,0.00
2018-03-20T00:15:33.566Z,0.00
2018-03-20T00:16:33.511Z,0.00
2018-03-20T00:17:33.457Z,0.00
2018-03-20T00:18:33.400Z,0.00
2018-03-20T00:19:33.349Z,0.00
2018-03-20T00:20:33.292Z,0.00
2018-03-20T00:21:33.239Z,0.00
2018-03-20T00:22:33.186Z,0.00
2018-03-20T00:23:33.161Z,0.00
2018-03-20T00:24:33.076Z,0.00
2018-03-20T00:25:33.023Z,0.00
2018-03-20T00:26:32.967Z,0.00
2018-03-20T00:27:32.913Z,0.00
2018-03-20T00:28:32.862Z,0.00
2018-03-20T00:29:32.806Z,0.00
2018-03-20T00:30:32.752Z,0.00
2018-03-20T00:31:32.699Z,0.00
2018-03-20T00:32:32.676Z,0.00
2018-03-20T00:33:32.591Z,0.00
2018-03-20T00:34:32.538Z,0.00
2018-03-20T00:35:32.490Z,0.00
2018-03-20T00:36:32.426Z,0.00
2018-03-20T00:37:32.374Z,0.00
2018-03-20T00:38:32.320Z,0.00
2018-03-20T00:39:32.262Z,0.00
2018-03-20T00:40:32.212Z,0.00
2018-03-20T00:41:32.190Z,0.00
2018-03-20T00:42:32.102Z,0.00
2018-03-20T00:43:32.047Z,0.00
2018-03-20T00:44:31.995Z,0.00
2018-03-20T00:45:31.946Z,0.00
2018-03-20T00:46:31.892Z,0.00
2018-03-20T00:47:31.832Z,0.00
2018-03-20T00:48:31.778Z,0.00
2018-03-20T00:49:31.730Z,0.00
2018-03-20T00:50:31.704Z,0.00
2018-03-20T00:51:31.615Z,0.00
2018-03-20T00:52:31.565Z,0.00
2018-03-20T00:53:31.506Z,0.00
2018-03-20T00:54:31.457Z,0.00
2018-03-20T00:55:31.402Z,0.00
2018-03-20T00:56:31.348Z,0.00
2018-03-20T00:57:31.298Z,0.00
2018-03-20T00:58:31.234Z,0.00
2018-03-20T00:59:31.216Z,0.00
2018-03-20T01:00:31.128Z,0.00
2018-03-20T01:01:31.075Z,0.00
2018-03-20T01:02:31.021Z,0.00
2018-03-20T01:03:30.966Z,0.00
2018-03-20T01:04:30.911Z,0.00
2018-03-20T01:05:30.858Z,0.00
2018-03-20T01:06:30.841Z,0.00
2018-03-20T01:07:30.754Z,0.00
2018-03-20T01:08:30.699Z,0.00
2018-03-20T01:09:30.643Z,0.00
2018-03-20T01:10:30.593Z,0.00
2018-03-20T01:11:30.535Z,0.00
2018-03-20T01:12:30.481Z,0.00
2018-03-20T01:13:30.425Z,0.00
2018-03-20T01:14:30.371Z,0.00
2018-03-20T01:15:30.354Z,0.00
2018-03-20T01:16:30.264Z,0.00
2018-03-20T01:17:30.244Z,0.00
2018-03-20T01:18:30.153Z,0.00
2018-03-20T01:19:30.103Z,0.00
2018-03-20T01:20:30.057Z,0.00
2018-03-20T01:21:29.992Z,0.00
2018-03-20T01:22:29.940Z,0.00
2018-03-20T01:23:29.885Z,0.00
2018-03-20T01:24:29.865Z,0.00
2018-03-20T01:25:29.773Z,0.00
2018-03-20T01:26:29.722Z,0.00
2018-03-20T01:27:29.670Z,0.00
2018-03-20T01:28:29.615Z,0.00
2018-03-20T01:29:29.558Z,0.00
2018-03-20T01:30:29.509Z,0.00
2018-03-20T01:31:29.456Z,0.00
2018-03-20T01:32:29.399Z,0.00
2018-03-20T01:33:29.342Z,0.00
2018-03-20T01:34:29.289Z,0.00
2018-03-20T01:35:29.269Z,0.00
2018-03-20T01:36:29.180Z,0.00
2018-03-20T01:37:29.129Z,0.00
2018-03-20T01:38:29.071Z,0.00
2018-03-20T01:39:29.018Z,0.00
2018-03-20T01:40:28.964Z,0.00
2018-03-20T01:41:28.911Z,0.00
2018-03-20T01:42:28.886Z,0.00
2018-03-20T01:43:28.800Z,0.00
2018-03-20T01:44:28.747Z,0.00
2018-03-20T01:45:28.693Z,0.00
2018-03-20T01:46:28.643Z,0.00
2018-03-20T01:47:28.588Z,0.00
2018-03-20T01:48:28.531Z,0.00
2018-03-20T01:49:28.475Z,0.00
2018-03-20T01:50:28.440Z,0.00
2018-03-20T01:51:28.400Z,0.00
2018-03-20T01:52:28.315Z,0.00
2018-03-20T01:53:28.259Z,0.00
2018-03-20T01:54:28.205Z,0.00
2018-03-20T01:55:28.149Z,0.00
2018-03-20T01:56:28.091Z,0.00
2018-03-20T01:57:28.038Z,0.00
2018-03-20T01:58:27.989Z,0.00
2018-03-20T01:59:27.935Z,0.00
2018-03-20T02:00:27.915Z,0.00
2018-03-20T02:01:27.825Z,0.00
2018-03-20T02:02:27.767Z,0.00
2018-03-20T02:03:27.719Z,0.00
2018-03-20T02:04:27.661Z,0.00
2018-03-20T02:05:27.612Z,0.00
2018-03-20T02:06:27.552Z,0.00
2018-03-20T02:07:27.493Z,0.00
2018-03-20T02:08:27.441Z,0.00
2018-03-20T02:09:27.426Z,0.00
2018-03-20T02:10:27.337Z,0.00
2018-03-20T02:11:27.281Z,0.00
2018-03-20T02:12:27.224Z,0.00
2018-03-20T02:13:27.172Z,0.00
2018-03-20T02:14:27.119Z,0.00
2018-03-20T02:15:27.059Z,0.00
2018-03-20T02:16:27.012Z,0.00
2018-03-20T02:17:26.956Z,0.00
2018-03-20T02:18:26.899Z,0.00
2018-03-20T02:19:26.847Z,0.00
2018-03-20T02:20:26.834Z,0.00
2018-03-20T02:21:26.736Z,0.00
2018-03-20T02:22:26.687Z,0.00
2018-03-20T02:23:26.628Z,0.00
2018-03-20T02:24:26.575Z,0.00
2018-03-20T02:25:26.523Z,0.00
2018-03-20T02:26:26.466Z,0.00
2018-03-20T02:27:26.413Z,0.00
2018-03-20T02:28:26.358Z,0.00
2018-03-20T02:29:26.305Z,0.00
2018-03-20T02:30:26.251Z,0.00
2018-03-20T02:31:26.231Z,0.00
2018-03-20T02:32:26.139Z,0.00
2018-03-20T02:33:26.103Z,0.00
2018-03-20T02:34:26.037Z,0.00
2018-03-20T02:35:25.974Z,0.00
2018-03-20T02:36:25.928Z,0.00
2018-03-20T02:37:25.868Z,0.00
2018-03-20T02:38:25.819Z,0.00
2018-03-20T02:39:25.766Z,0.00
2018-03-20T02:40:25.735Z,0.00
2018-03-20T02:41:25.652Z,0.00
2018-03-20T02:42:25.598Z,0.00
2018-03-20T02:43:25.542Z,0.00
2018-03-20T02:44:25.542Z,0.00
2018-03-20T02:45:25.434Z,0.00
2018-03-20T02:46:25.379Z,0.00
2018-03-20T02:47:25.330Z,0.00
2018-03-20T02:48:25.271Z,0.00
2018-03-20T02:49:25.242Z,0.00
2018-03-20T02:50:25.162Z,0.00
2018-03-20T02:51:25.111Z,0.00
2018-03-20T02:52:25.060Z,0.00
2018-03-20T02:53:25.009Z,0.00
2018-03-20T02:54:24.979Z,0.00
2018-03-20T02:55:24.891Z,0.00
2018-03-20T02:56:24.843Z,0.00
2018-03-20T02:57:24.785Z,0.00
2018-03-20T02:58:24.730Z,0.00
2018-03-20T02:59:24.688Z,0.00
2018-03-20T03:00:24.655Z,0.00
2018-03-20T03:01:24.577Z,0.00
2018-03-20T03:02:24.510Z,0.00
2018-03-20T03:03:24.456Z,0.00
2018-03-20T03:04:24.410Z,0.00
2018-03-20T03:05:24.361Z,0.00
2018-03-20T03:06:24.291Z,0.00
2018-03-20T03:07:24.242Z,0.00
2018-03-20T03:08:24.189Z,0.00
2018-03-20T03:09:24.165Z,0.00
2018-03-20T03:10:24.080Z,0.00
2018-03-20T03:11:24.026Z,0.00
2018-03-20T03:12:24.018Z,0.00
2018-03-20T03:13:23.915Z,0.00
2018-03-20T03:14:23.862Z,0.00
2018-03-20T03:15:23.809Z,0.00
2018-03-20T03:16:23.765Z,0.00
2018-03-20T03:17:23.701Z,0.00
2018-03-20T03:18:23.646Z,0.00
2018-03-20T03:19:23.590Z,0.00
2018-03-20T03:20:23.568Z,0.00
2018-03-20T03:21:23.485Z,0.00
2018-03-20T03:22:23.436Z,0.00
2018-03-20T03:23:23.378Z,0.00
2018-03-20T03:24:23.329Z,0.00
2018-03-20T03:25:23.270Z,0.00
2018-03-20T03:26:23.215Z,0.00
2018-03-20T03:27:23.166Z,0.00
2018-03-20T03:28:23.109Z,0.00
2018-03-20T03:29:23.080Z,0.00
2018-03-20T03:30:23.000Z,0.00
2018-03-20T03:31:22.947Z,0.00
2018-03-20T03:32:22.893Z,0.00
2018-03-20T03:33:22.884Z,0.00
2018-03-20T03:34:22.789Z,0.00
2018-03-20T03:35:22.728Z,0.00
2018-03-20T03:36:22.672Z,0.00
2018-03-20T03:37:22.621Z,0.00
2018-03-20T03:38:22.568Z,0.00
2018-03-20T03:39:22.513Z,0.00
2018-03-20T03:40:22.494Z,0.00
2018-03-20T03:41:22.408Z,0.00
2018-03-20T03:42:22.353Z,0.00
2018-03-20T03:43:22.294Z,0.00
2018-03-20T03:44:22.243Z,0.00
2018-03-20T03:45:22.187Z,0.00
2018-03-20T03:46:22.138Z,0.00
2018-03-20T03:47:22.084Z,0.00
2018-03-20T03:48:22.028Z,0.00
2018-03-20T03:49:22.007Z,0.00
2018-03-20T03:50:21.921Z,0.00
2018-03-20T03:51:21.865Z,0.00
2018-03-20T03:52:21.811Z,0.00
2018-03-20T03:53:21.762Z,0.00
2018-03-20T03:54:21.702Z,0.00
2018-03-20T03:55:21.651Z,0.00
2018-03-20T03:56:21.597Z,0.00
2018-03-20T03:57:21.547Z,0.00
2018-03-20T03:58:21.487Z,0.00
2018-03-20T03:59:21.437Z,0.00
2018-03-20T04:00:21.415Z,0.00
2018-03-20T04:01:21.330Z,0.00
2018-03-20T04:02:21.270Z,0.00
2018-03-20T04:03:21.220Z,0.00
2018-03-20T04:04:21.167Z,0.00
2018-03-20T04:05:21.107Z,0.00
2018-03-20T04:06:21.059Z,0.00
2018-03-20T04:07:20.999Z,0.00
2018-03-20T04:08:20.944Z,0.00
2018-03-20T04:09:20.927Z,0.00
2018-03-20T04:10:20.845Z,0.00
2018-03-20T04:11:20.784Z,0.00
2018-03-20T04:12:20.732Z,0.00
2018-03-20T04:13:20.676Z,0.00
2018-03-20T04:14:20.624Z,0.00
2018-03-20T04:15:20.566Z,0.00
2018-03-20T04:16:20.512Z,0.00
2018-03-20T04:17:20.458Z,0.00
2018-03-20T04:18:20.401Z,0.00
2018-03-20T04:19:20.347Z,0.00
2018-03-20T04:20:20.332Z,0.00
2018-03-20T04:21:20.242Z,0.00
2018-03-20T04:22:20.187Z,0.00
2018-03-20T04:23:20.135Z,0.00
2018-03-20T04:24:20.082Z,0.00
2018-03-20T04:25:20.027Z,0.00
2018-03-20T04:26:19.970Z,0.00
2018-03-20T04:27:19.917Z,0.00
2018-03-20T04:28:19.863Z,0.00
2018-03-20T04:29:19.810Z,0.00
2018-03-20T04:30:19.757Z,0.00
2018-03-20T04:31:19.734Z,0.00
2018-03-20T04:32:19.645Z,0.00
2018-03-20T04:33:19.594Z,0.00
2018-03-20T04:34:19.533Z,0.00
2018-03-20T04:35:19.485Z,0.00
2018-03-20T04:36:19.431Z,0.00
2018-03-20T04:37:19.377Z,0.00
2018-03-20T04:38:19.324Z,0.00
2018-03-20T04:39:19.266Z,0.00
2018-03-20T04:40:19.247Z,0.00
2018-03-20T04:41:19.159Z,0.00
2018-03-20T04:42:19.105Z,0.00
2018-03-20T04:43:19.054Z,0.00
2018-03-20T04:44:18.998Z,0.00
2018-03-20T04:45:18.943Z,0.00
2018-03-20T04:46:18.890Z,0.00
2018-03-20T04:47:18.838Z,0.00
2018-03-20T04:48:18.789Z,0.00
2018-03-20T04:49:18.727Z,0.00
2018-03-20T04:50:18.675Z,0.00
2018-03-20T04:51:18.658Z,0.00
2018-03-20T04:52:18.570Z,0.00
2018-03-20T04:53:18.512Z,0.00
2018-03-20T04:54:18.457Z,0.00
2018-03-20T04:55:18.404Z,4.00
2018-03-20T04:56:18.354Z,0.00
2018-03-20T04:57:18.294Z,4.00
2018-03-20T04:58:18.242Z,4.00
2018-03-20T04:59:18.184Z,4.00
2018-03-20T05:00:18.134Z,4.00
2018-03-20T05:01:18.079Z,4.00
2018-03-20T05:02:18.059Z,8.00
2018-03-20T05:03:17.976Z,12.00
2018-03-20T05:04:17.960Z,12.00
2018-03-20T05:05:17.863Z,16.00
2018-03-20T05:06:17.815Z,16.00
2018-03-20T05:07:17.755Z,20.00
2018-03-20T05:08:17.701Z,24.00
2018-03-20T05:09:17.642Z,28.00
2018-03-20T05:10:17.593Z,32.00
2018-03-20T05:11:17.572Z,40.00
2018-03-20T05:12:17.484Z,44.00
2018-03-20T05:13:17.428Z,52.00
2018-03-20T05:14:17.375Z,56.00
2018-03-20T05:15:17.324Z,64.00
2018-03-20T05:16:17.270Z,72.00
2018-03-20T05:17:17.215Z,76.00
2018-03-20T05:18:18.142Z,88.00
2018-03-20T05:19:17.107Z,100.00
2018-03-20T05:20:17.262Z,116.00
2018-03-20T05:21:17.000Z,132.00
2018-03-20T05:22:16.943Z,148.00
2018-03-20T05:23:16.899Z,168.00
2018-03-20T05:24:16.834Z,188.00
2018-03-20T05:25:16.790Z,212.00
2018-03-20T05:26:16.726Z,240.00
2018-03-20T05:27:16.711Z,272.00
2018-03-20T05:28:16.619Z,304.00
2018-03-20T05:29:16.563Z,340.00
2018-03-20T05:30:16.511Z,384.00
2018-03-20T05:31:16.457Z,428.00
2018-03-20T05:32:16.399Z,476.00
2018-03-20T05:33:16.343Z,524.00
2018-03-20T05:34:16.326Z,576.00
2018-03-20T05:35:16.239Z,632.00
2018-03-20T05:36:16.180Z,688.00
2018-03-20T05:37:16.129Z,740.00
2018-03-20T05:38:16.075Z,792.00
2018-03-20T05:39:16.024Z,848.00
2018-03-20T05:40:15.967Z,900.00
2018-03-20T05:41:15.913Z,944.00
2018-03-20T05:42:15.859Z,1000.00
2018-03-20T05:43:15.833Z,1076.00
2018-03-20T05:44:15.751Z,1168.00
2018-03-20T05:45:15.696Z,1260.00
2018-03-20T05:46:15.641Z,1356.00
2018-03-20T05:47:15.589Z,1440.00
2018-03-20T05:48:15.534Z,1528.00
2018-03-20T05:49:15.479Z,1608.00
2018-03-20T05:50:15.424Z,1692.00
2018-03-20T05:51:15.375Z,1776.00
2018-03-20T05:52:15.313Z,1860.00
2018-03-20T05:53:15.276Z,1944.00
2018-03-20T05:54:15.241Z,2032.00
2018-03-20T05:55:15.149Z,2120.00
2018-03-20T05:56:15.094Z,2212.00
2018-03-20T05:57:15.051Z,2296.00
2018-03-20T05:58:14.991Z,2384.00
2018-03-20T05:59:14.938Z,2468.00
2018-03-20T06:00:14.886Z,2560.00
2018-03-20T06:01:14.828Z,2640.00
2018-03-20T06:02:14.781Z,2732.00
2018-03-20T06:03:14.747Z,2820.00
2018-03-20T06:04:14.674Z,2908.00
2018-03-20T06:05:14.614Z,2988.00
2018-03-20T06:06:14.588Z,3072.00
2018-03-20T06:07:14.508Z,3152.00
2018-03-20T06:08:14.451Z,3232.00
2018-03-20T06:09:14.606Z,3300.00
2018-03-20T06:10:14.343Z,3364.00
2018-03-20T06:11:14.290Z,3416.00
2018-03-20T06:12:14.246Z,3460.00
2018-03-20T06:13:14.182Z,3496.00
2018-03-20T06:14:14.127Z,3532.00
2018-03-20T06:15:14.074Z,3564.00
2018-03-20T06:16:14.029Z,3600.00
2018-03-20T06:17:13.968Z,3652.00
2018-03-20T06:18:13.922Z,3704.00
2018-03-20T06:19:13.860Z,3768.00
2018-03-20T06:20:13.809Z,3836.00
2018-03-20T06:21:13.756Z,3928.00
2018-03-20T06:22:13.707Z,4016.00
2018-03-20T06:23:13.645Z,4120.00
2018-03-20T06:24:13.600Z,4240.00
2018-03-20T06:25:13.553Z,4368.00
2018-03-20T06:26:13.495Z,4492.00
2018-03-20T06:27:13.434Z,4612.00
2018-03-20T06:28:13.386Z,4696.00
2018-03-20T06:29:14.125Z,4752.00
2018-03-20T06:30:13.270Z,4852.00
2018-03-20T06:31:13.215Z,4908.00
2018-03-20T06:32:13.170Z,5016.00
2018-03-20T06:33:13.111Z,5108.00
2018-03-20T06:34:13.062Z,5136.00
2018-03-20T06:35:13.006Z,5132.00
2018-03-20T06:36:12.960Z,5132.00
2018-03-20T06:37:12.904Z,5152.00
2018-03-20T06:38:12.839Z,5212.00
2018-03-20T06:39:12.788Z,5288.00
2018-03-20T06:40:12.736Z,5396.00
2018-03-20T06:41:12.681Z,5492.00
2018-03-20T06:42:12.628Z,5504.00
2018-03-20T06:43:12.572Z,5612.00
2018-03-20T06:44:12.515Z,5908.00
2018-03-20T06:45:12.473Z,6112.00
2018-03-20T06:46:12.413Z,6904.00
2018-03-20T06:47:12.372Z,7012.00
2018-03-20T06:48:12.314Z,7232.00
2018-03-20T06:49:12.351Z,7400.00
2018-03-20T06:50:12.227Z,7444.00
2018-03-20T06:51:12.154Z,7684.00
2018-03-20T06:52:12.095Z,7772.00
2018-03-20T06:53:12.038Z,7896.00
2018-03-20T06:54:12.090Z,8060.00
2018-03-20T06:55:11.955Z,8140.00
2018-03-20T06:56:11.920Z,8160.00
2018-03-20T06:57:11.844Z,8116.00
2018-03-20T06:58:11.790Z,8148.00
2018-03-20T06:59:11.723Z,8152.00
2018-03-20T07:00:11.687Z,8308.00
2018-03-20T07:01:11.671Z,8508.00
2018-03-20T07:02:11.587Z,8628.00
2018-03-20T07:03:11.543Z,8312.00
2018-03-20T07:04:11.486Z,8068.00
2018-03-20T07:05:11.465Z,7728.00
2018-03-20T07:06:11.392Z,7868.00
2018-03-20T07:07:11.307Z,8084.00
2018-03-20T07:08:11.248Z,8428.00
2018-03-20T07:09:18.827Z,8776.00
2018-03-20T07:10:11.140Z,9012.00
2018-03-20T07:11:11.408Z,9152.00
2018-03-20T07:12:11.040Z,9416.00
2018-03-20T07:13:11.064Z,9496.00
2018-03-20T07:14:10.970Z,9776.00
2018-03-20T07:15:10.892Z,9932.00
2018-03-20T07:16:10.844Z,9932.00
2018-03-20T07:17:10.788Z,10240.00
2018-03-20T07:18:11.311Z,10548.00
2018-03-20T07:19:10.693Z,10496.00
2018-03-20T07:20:11.225Z,10504.00
2018-03-20T07:21:10.653Z,10604.00
2018-03-20T07:22:10.553Z,10796.00
2018-03-20T07:23:10.464Z,10780.00
2018-03-20T07:24:10.398Z,10660.00
2018-03-20T07:25:10.353Z,10732.00
2018-03-20T07:26:10.332Z,10872.00
2018-03-20T07:27:10.269Z,11208.00
2018-03-20T07:28:10.195Z,11360.00
2018-03-20T07:29:10.194Z,11416.00
2018-03-20T07:30:10.106Z,10344.00
2018-03-20T07:31:10.040Z,11360.00
2018-03-20T07:32:10.010Z,12112.00
2018-03-20T07:33:09.936Z,12180.00
2018-03-20T07:34:09.899Z,11956.00
2018-03-20T07:35:09.841Z,11772.00
2018-03-20T07:36:09.816Z,11604.00
2018-03-20T07:37:09.732Z,11564.00
2018-03-20T07:38:09.686Z,11684.00
2018-03-20T07:39:09.648Z,11752.00
2018-03-20T07:40:09.610Z,11704.00
2018-03-20T07:41:09.522Z,11464.00
2018-03-20T07:42:09.473Z,10744.00
2018-03-20T07:43:09.455Z,10316.00
2018-03-20T07:44:09.379Z,10028.00
2018-03-20T07:46:41.705Z,10576.00
2018-03-20T07:47:41.306Z,10956.00
2018-03-20T07:48:41.279Z,11624.00
2018-03-20T07:49:41.361Z,11508.00
2018-03-20T07:50:41.321Z,10904.00
2018-03-20T07:51:41.118Z,10276.00
2018-03-20T07:52:41.055Z,10192.00
2018-03-20T07:53:40.985Z,9848.00
2018-03-20T07:54:40.952Z,9468.00
2018-03-20T07:55:40.881Z,9340.00
2018-03-20T07:56:56.430Z,9280.00
2018-03-20T07:57:40.784Z,9156.00
2018-03-20T07:58:40.719Z,8948.00
2018-03-20T07:59:40.683Z,9020.00
2018-03-20T08:00:40.620Z,8984.00
2018-03-20T08:01:40.632Z,8768.00
2018-03-20T08:02:40.523Z,8696.00
2018-03-20T08:03:47.434Z,8916.00
2018-03-20T08:04:40.442Z,9720.00
2018-03-20T08:05:40.374Z,11164.00
2018-03-20T08:06:40.320Z,11656.00
2018-03-20T08:07:40.275Z,13464.00
2018-03-20T08:08:40.242Z,14028.00
2018-03-20T08:09:40.158Z,13764.00
2018-03-20T08:10:40.109Z,13924.00
2018-03-20T08:11:40.049Z,13984.00
2018-03-20T08:12:39.999Z,12896.00
2018-03-20T08:13:39.969Z,13716.00
2018-03-20T08:14:39.897Z,14228.00
2018-03-20T08:15:39.866Z,14396.00
2018-03-20T08:16:39.842Z,14712.00
2018-03-20T08:17:39.774Z,14828.00
2018-03-20T08:18:39.788Z,14936.00
2018-03-20T08:19:39.647Z,15376.00
2018-03-20T08:22:11.668Z,16044.00
2018-03-20T08:23:11.553Z,14340.00
2018-03-20T08:24:11.713Z,11888.00
2018-03-20T08:25:11.454Z,11268.00
2018-03-20T08:26:12.374Z,11516.00
2018-03-20T08:27:11.455Z,11572.00
2018-03-20T08:28:12.387Z,11688.00
2018-03-20T08:29:11.234Z,11900.00
2018-03-20T08:30:11.237Z,12328.00
2018-03-20T08:31:11.235Z,11264.00
2018-03-20T08:32:11.107Z,11368.00
2018-03-20T08:33:11.031Z,11620.00
2018-03-20T08:34:10.978Z,13284.00
2018-03-20T08:35:10.929Z,13672.00
2018-03-20T08:36:11.044Z,13780.00
2018-03-20T08:37:10.851Z,16376.00
2018-03-20T08:38:10.772Z,15156.00
2018-03-20T08:39:10.724Z,15240.00
2018-03-20T08:40:10.690Z,15736.00
2018-03-20T08:41:10.641Z,14580.00
2018-03-20T08:42:10.578Z,14640.00
2018-03-20T08:43:11.141Z,16168.00
2018-03-20T08:44:10.478Z,15552.00
2018-03-20T08:45:10.415Z,16700.00
2018-03-20T08:46:10.375Z,16788.00
2018-03-20T08:47:10.320Z,17376.00
2018-03-20T08:48:10.380Z,17600.00
2018-03-20T08:49:10.294Z,17084.00
2018-03-20T08:50:10.193Z,16172.00
2018-03-20T08:51:10.114Z,18656.00
2018-03-20T08:52:10.141Z,20160.00
2018-03-20T08:53:10.012Z,20288.00
2018-03-20T08:54:09.960Z,18048.00
2018-03-20T08:55:09.949Z,17504.00
2018-03-20T08:56:09.930Z,15784.00
2018-03-20T08:57:09.908Z,14444.00
2018-03-20T08:58:09.831Z,14128.00
2018-03-20T08:59:09.737Z,14556.00
2018-03-20T09:00:09.660Z,16008.00
2018-03-20T09:01:09.706Z,16668.00
2018-03-20T09:02:09.600Z,16468.00
2018-03-20T09:03:09.596Z,14268.00
2018-03-20T09:04:09.479Z,11916.00
2018-03-20T09:05:09.433Z,11496.00
2018-03-20T09:06:09.378Z,11360.00
2018-03-20T09:07:09.314Z,13424.00
2018-03-20T09:08:09.279Z,15912.00
2018-03-20T09:09:09.215Z,15508.00
2018-03-20T09:10:09.158Z,15464.00
2018-03-20T09:11:09.103Z,15380.00
2018-03-20T09:12:09.124Z,15336.00
2018-03-20T09:13:09.144Z,15256.00
2018-03-20T09:14:09.004Z,15484.00
2018-03-20T09:15:08.908Z,15564.00
2018-03-20T09:16:08.859Z,15772.00
2018-03-20T09:17:08.841Z,15812.00
2018-03-20T09:18:08.806Z,16000.00
2018-03-20T09:19:08.722Z,16196.00
2018-03-20T09:20:08.663Z,16336.00
2018-03-20T09:21:08.608Z,16244.00
2018-03-20T09:22:08.573Z,16272.00
2018-03-20T09:23:08.518Z,16284.00
2018-03-20T09:24:08.457Z,16568.00
2018-03-20T09:25:08.444Z,16212.00
2018-03-20T09:26:08.363Z,16232.00
2018-03-20T09:27:08.464Z,16040.00
2018-03-20T09:28:08.261Z,15764.00
2018-03-20T09:29:08.251Z,16156.00
2018-03-20T09:30:08.161Z,16396.00
2018-03-20T09:31:08.106Z,16796.00
2018-03-20T09:32:08.073Z,17016.00
2018-03-20T09:33:08.004Z,17312.00
2018-03-20T09:34:07.966Z,17568.00
2018-03-20T09:35:10.714Z,17760.00
2018-03-20T09:36:07.862Z,17952.00
2018-03-20T09:37:07.803Z,17696.00
2018-03-20T09:38:07.774Z,17600.00
2018-03-20T09:39:07.714Z,17100.00
2018-03-20T09:40:07.658Z,16972.00
2018-03-20T09:41:07.606Z,16476.00
2018-03-20T09:42:07.674Z,16016.00
2018-03-20T09:43:07.511Z,15732.00
2018-03-20T09:44:07.461Z,11984.00
2018-03-20T09:45:07.428Z,13320.00
2018-03-20T09:46:07.369Z,15808.00
2018-03-20T09:47:07.324Z,15712.00
2018-03-20T09:48:07.263Z,16440.00
2018-03-20T09:49:07.215Z,17116.00
2018-03-20T09:50:07.155Z,16952.00
2018-03-20T09:51:07.116Z,16880.00
2018-03-20T09:52:07.061Z,16632.00
2018-03-20T09:53:07.018Z,16412.00
2018-03-20T09:54:06.984Z,16552.00
2018-03-20T09:55:06.906Z,15560.00
2018-03-20T09:56:06.867Z,16368.00
2018-03-20T09:57:06.807Z,16728.00
2018-03-20T09:58:06.759Z,16572.00
2018-03-20T09:59:06.712Z,16724.00
2018-03-20T10:00:06.669Z,17792.00
2018-03-20T10:01:06.614Z,18144.00
2018-03-20T10:02:06.556Z,18464.00
2018-03-20T10:03:06.521Z,15632.00
2018-03-20T10:04:06.467Z,19616.00
2018-03-20T10:05:06.405Z,19200.00
2018-03-20T10:06:06.418Z,19424.00
2018-03-20T10:07:06.317Z,19104.00
2018-03-20T10:08:06.277Z,16808.00
2018-03-20T10:09:06.218Z,13028.00
2018-03-20T10:10:06.168Z,11700.00
2018-03-20T10:11:06.113Z,11072.00
2018-03-20T10:12:06.069Z,15240.00
2018-03-20T10:13:06.018Z,13564.00
2018-03-20T10:14:05.988Z,10232.00
2018-03-20T10:15:05.921Z,9308.00
2018-03-20T10:16:05.868Z,8572.00
2018-03-20T10:17:05.842Z,8140.00
2018-03-20T10:18:05.788Z,8084.00
2018-03-20T10:19:05.726Z,10168.00
2018-03-20T10:20:05.711Z,9776.00
2018-03-20T10:21:05.632Z,7780.00
2018-03-20T10:22:05.583Z,7564.00
2018-03-20T10:23:08.212Z,7544.00
2018-03-20T10:24:06.054Z,7616.00
2018-03-20T10:25:05.434Z,9164.00
2018-03-20T10:26:05.374Z,8180.00
2018-03-20T10:27:05.485Z,8564.00
2018-03-20T10:28:05.449Z,10788.00
2018-03-20T10:29:05.218Z,12644.00
2018-03-20T10:30:05.165Z,13376.00
2018-03-20T10:31:05.244Z,13324.00
2018-03-20T10:32:05.082Z,13164.00
2018-03-20T10:33:05.034Z,12936.00
2018-03-20T10:34:04.982Z,12800.00
2018-03-20T10:35:04.961Z,12880.00
2018-03-20T10:36:04.868Z,12716.00
2018-03-20T10:37:04.815Z,12404.00
2018-03-20T10:38:04.786Z,12252.00
2018-03-20T10:39:04.755Z,12212.00
2018-03-20T10:40:04.698Z,12264.00
2018-03-20T10:41:04.709Z,12368.00
2018-03-20T10:42:04.562Z,12376.00
2018-03-20T10:43:04.603Z,12388.00
2018-03-20T10:44:04.511Z,12392.00
2018-03-20T10:45:04.444Z,12404.00
2018-03-20T10:46:04.382Z,12368.00
2018-03-20T10:47:04.382Z,12452.00
2018-03-20T10:48:04.294Z,12484.00
2018-03-20T10:49:04.273Z,12548.00
2018-03-20T10:50:04.223Z,12616.00
2018-03-20T10:51:04.111Z,12632.00
2018-03-20T10:52:04.092Z,12660.00
2018-03-20T10:53:04.013Z,12784.00
2018-03-20T10:54:03.969Z,12964.00
2018-03-20T10:55:04.004Z,13084.00
2018-03-20T10:56:03.854Z,13276.00
2018-03-20T10:57:03.816Z,13404.00
2018-03-20T10:58:03.783Z,13520.00
2018-03-20T10:59:03.733Z,13588.00
2018-03-20T11:00:03.664Z,11476.00
2018-03-20T11:01:03.603Z,11164.00
2018-03-20T11:02:03.576Z,10412.00
2018-03-20T11:03:03.544Z,11380.00
2018-03-20T11:04:03.487Z,12116.00
2018-03-20T11:05:03.420Z,11048.00
2018-03-20T11:06:03.367Z,13200.00
2018-03-20T11:07:03.302Z,12736.00
2018-03-20T11:08:03.259Z,14616.00
2018-03-20T11:09:03.206Z,14960.00
2018-03-20T11:10:03.158Z,15124.00
2018-03-20T11:11:03.116Z,15124.00
2018-03-20T11:12:03.075Z,15100.00
2018-03-20T11:13:03.022Z,15152.00
2018-03-20T11:14:02.968Z,14820.00
2018-03-20T11:15:02.928Z,14280.00
2018-03-20T11:16:02.880Z,14864.00
2018-03-20T11:17:02.818Z,14484.00
2018-03-20T11:18:02.760Z,15412.00
2018-03-20T11:19:02.710Z,15276.00
2018-03-20T11:20:02.665Z,15184.00
2018-03-20T11:21:02.644Z,14884.00
2018-03-20T11:22:02.573Z,14704.00
2018-03-20T11:23:02.538Z,14084.00
2018-03-20T11:24:02.482Z,13904.00
2018-03-20T11:25:02.409Z,13720.00
2018-03-20T11:26:02.377Z,13460.00
2018-03-20T11:27:02.318Z,13520.00
2018-03-20T11:28:02.259Z,12820.00
2018-03-20T11:29:02.221Z,12048.00
2018-03-20T11:30:02.208Z,11712.00
2018-03-20T11:31:02.117Z,11704.00
2018-03-20T11:32:02.088Z,11568.00
2018-03-20T11:33:02.076Z,11372.00
2018-03-20T11:34:01.976Z,11144.00
2018-03-20T11:35:01.938Z,10804.00
2018-03-20T11:36:01.883Z,10744.00
2018-03-20T11:37:01.840Z,10720.00
2018-03-20T11:38:01.815Z,10884.00
2018-03-20T11:39:01.720Z,11012.00
2018-03-20T11:40:01.673Z,10868.00
2018-03-20T11:41:01.655Z,10268.00
2018-03-20T11:42:01.575Z,10164.00
2018-03-20T11:43:01.533Z,9792.00
2018-03-20T11:44:01.483Z,9716.00
2018-03-20T11:45:01.443Z,9520.00
2018-03-20T11:46:01.374Z,9800.00
2018-03-20T11:47:01.323Z,9868.00
2018-03-20T11:48:01.366Z,10344.00
2018-03-20T11:49:01.241Z,10000.00
2018-03-20T11:50:01.195Z,9952.00
2018-03-20T11:51:01.143Z,9736.00
2018-03-20T11:52:01.073Z,9508.00
2018-03-20T11:53:01.067Z,9512.00
2018-03-20T11:54:00.976Z,9348.00
2018-03-20T11:55:00.960Z,9268.00
2018-03-20T11:56:00.906Z,9164.00
2018-03-20T11:57:00.827Z,9008.00
2018-03-20T11:58:00.870Z,8848.00
2018-03-20T11:59:07.721Z,8580.00
2018-03-20T12:00:00.755Z,8548.00
2018-03-20T12:01:00.645Z,8356.00
2018-03-20T12:02:00.576Z,8592.00
2018-03-20T12:03:00.530Z,8904.00
2018-03-20T12:04:00.494Z,8908.00
2018-03-20T12:05:00.459Z,8920.00
2018-03-20T12:06:01.238Z,8980.00
2018-03-20T12:07:00.344Z,8684.00
2018-03-20T12:08:00.303Z,8496.00
2018-03-20T12:09:00.333Z,9040.00
2018-03-20T12:10:00.197Z,9376.00
2018-03-20T12:11:00.148Z,8736.00
2018-03-20T12:12:00.074Z,9676.00
2018-03-20T12:13:00.051Z,9072.00
2018-03-20T12:13:59.999Z,9824.00
2018-03-20T12:14:59.941Z,8524.00
2018-03-20T12:15:59.894Z,8184.00
2018-03-20T12:16:59.845Z,8260.00
2018-03-20T12:17:59.794Z,8816.00
2018-03-20T12:18:59.731Z,8372.00
2018-03-20T12:19:59.676Z,8608.00
2018-03-20T12:20:59.635Z,9708.00
2018-03-20T12:21:59.603Z,9860.00
2018-03-20T12:23:06.224Z,10184.00
2018-03-20T12:23:59.464Z,10140.00
2018-03-20T12:24:59.423Z,9904.00
2018-03-20T12:25:59.364Z,9440.00
2018-03-20T12:26:59.321Z,9680.00
2018-03-20T12:27:59.275Z,9792.00
2018-03-20T12:28:59.220Z,9760.00
2018-03-20T12:29:59.185Z,10556.00